createdAt,value
2019-06-01T00:00:59.074Z,19.30
2019-06-01T00:06:15.701Z,17.73
2019-06-01T00:11:31.306Z,21.85
2019-06-01T00:16:35.749Z,16.67
2019-06-01T00:21:38.753Z,16.42
2019-06-01T00:26:41.859Z,15.68
2019-06-01T00:31:45.316Z,17.95
2019-06-01T00:36:52.353Z,15.63
2019-06-01T00:42:19.328Z,11.53
2019-06-01T00:47:22.341Z,15.00
2019-06-01T00:52:29.284Z,17.37
2019-06-01T00:57:35.478Z,19.75
2019-06-01T01:02:41.955Z,17.40
2019-06-01T01:07:46.597Z,12.46
2019-06-01T01:13:10.842Z,13.80
2019-06-01T01:18:13.849Z,17.35
2019-06-01T01:23:16.783Z,21.37
2019-06-01T01:28:23.931Z,17.92
2019-06-01T01:33:33.131Z,21.20
2019-06-01T01:44:07.805Z,21.97
2019-06-01T01:49:11.900Z,27.73
2019-06-01T01:54:17.671Z,21.57
2019-06-01T02:04:27.029Z,20.57
2019-06-01T02:09:36.782Z,21.68
2019-06-01T02:14:39.990Z,21.20
2019-06-01T02:19:43.067Z,20.27
2019-06-01T02:24:48.023Z,19.23
2019-06-01T02:29:50.965Z,20.92
2019-06-01T02:34:54.376Z,23.25
2019-06-01T02:39:58.437Z,22.58
2019-06-01T02:45:02.222Z,22.40
2019-06-01T02:50:07.827Z,22.80
2019-06-01T02:55:16.751Z,25.55
2019-06-01T03:01:20.998Z,20.65
2019-06-01T03:06:29.758Z,22.30
2019-06-01T03:11:36.175Z,17.20
2019-06-01T03:16:42.130Z,19.32
2019-06-01T03:21:49.599Z,21.23
2019-06-01T03:26:54.502Z,25.52
2019-06-01T03:32:17.543Z,16.50
2019-06-01T03:37:03.138Z,22.63
2019-06-01T03:42:07.848Z,24.20
2019-06-01T03:47:11.870Z,23.65
2019-06-01T03:52:15.168Z,25.50
2019-06-01T03:57:18.227Z,25.80
2019-06-01T04:02:32.458Z,24.20
2019-06-01T04:07:26.321Z,25.82
2019-06-01T04:12:29.382Z,25.15
2019-06-01T04:17:32.956Z,24.95
2019-06-01T04:22:36.065Z,22.42
2019-06-01T04:27:39.080Z,23.70
2019-06-01T04:32:49.673Z,23.05
2019-06-01T04:37:46.983Z,22.62
2019-06-01T04:42:50.102Z,20.05
2019-06-01T04:47:53.154Z,23.42
2019-06-01T04:52:56.102Z,23.92
2019-06-01T04:57:59.075Z,19.55
2019-06-01T05:03:05.203Z,24.07
2019-06-01T05:08:07.283Z,18.73
2019-06-01T05:13:11.617Z,17.45
2019-06-01T05:18:18.328Z,22.30
2019-06-01T05:23:19.537Z,20.52
2019-06-01T05:28:22.624Z,22.75
2019-06-01T05:33:36.794Z,17.45
2019-06-01T05:38:30.995Z,20.23
2019-06-01T05:43:34.340Z,22.47
2019-06-01T05:48:37.388Z,23.20
2019-06-01T05:53:40.807Z,24.13
2019-06-01T05:58:45.179Z,18.15
2019-06-01T06:03:48.160Z,20.20
2019-06-01T06:08:51.224Z,19.80
2019-06-01T06:13:54.263Z,24.43
2019-06-01T06:18:57.469Z,26.65
2019-06-01T06:24:00.433Z,22.10
2019-06-01T06:29:06.165Z,19.77
2019-06-01T06:34:09.200Z,24.15
2019-06-01T06:39:12.177Z,22.87
2019-06-01T06:44:16.324Z,24.52
2019-06-01T06:49:19.472Z,17.35
2019-06-01T06:54:22.489Z,20.02
2019-06-01T06:59:26.620Z,21.07
2019-06-01T07:04:29.915Z,18.10
2019-06-01T07:09:32.987Z,16.80
2019-06-01T07:14:36.231Z,19.07
2019-06-01T07:19:39.311Z,17.25
2019-06-01T07:24:44.466Z,14.40
2019-06-01T07:29:47.609Z,13.22
2019-06-01T07:34:50.626Z,14.75
2019-06-01T07:39:53.672Z,14.60
2019-06-01T07:44:56.801Z,13.53
2019-06-01T07:50:01.232Z,18.35
2019-06-01T07:55:05.137Z,13.83
2019-06-01T08:00:09.123Z,13.78
2019-06-01T08:05:12.298Z,11.35
2019-06-01T08:10:15.545Z,11.25
2019-06-01T08:15:18.926Z,10.23
2019-06-01T08:20:22.186Z,10.05
2019-06-01T08:25:26.538Z,10.35
2019-06-01T08:30:30.716Z,8.60
2019-06-01T08:35:33.980Z,5.67
2019-06-01T08:40:37.066Z,6.87
2019-06-01T08:45:40.924Z,6.97
2019-06-01T08:50:46.238Z,7.45
2019-06-01T08:55:49.173Z,5.93
2019-06-01T09:00:52.382Z,6.90
2019-06-01T09:05:55.439Z,7.47
2019-06-01T09:10:58.929Z,7.40
2019-06-01T09:16:02.091Z,8.90
2019-06-01T09:21:05.178Z,16.90
2019-06-01T09:26:08.420Z,5.90
2019-06-01T09:31:11.437Z,4.95
2019-06-01T09:36:14.556Z,6.20
2019-06-01T09:41:17.923Z,8.25
2019-06-01T09:46:21.377Z,6.60
2019-06-01T09:51:24.403Z,8.43
2019-06-01T09:56:29.245Z,6.45
2019-06-01T10:01:34.336Z,3.47
2019-06-01T10:06:38.713Z,4.22
2019-06-01T10:11:42.438Z,5.97
2019-06-01T10:16:45.760Z,5.40
2019-06-01T10:21:48.705Z,2.87
2019-06-01T10:26:51.848Z,6.35
2019-06-01T10:31:54.987Z,3.10
2019-06-01T10:36:58.068Z,4.60
2019-06-01T10:42:01.446Z,5.35
2019-06-01T10:47:05.037Z,6.10
2019-06-01T10:52:08.133Z,5.10
2019-06-01T10:57:11.179Z,3.87
2019-06-01T11:02:14.250Z,4.25
2019-06-01T11:07:17.462Z,4.70
2019-06-01T11:12:20.678Z,4.33
2019-06-01T11:17:23.685Z,3.55
2019-06-01T11:22:26.840Z,3.62
2019-06-01T11:27:30.125Z,3.58
2019-06-01T11:32:33.683Z,2.75
2019-06-01T11:37:38.440Z,3.92
2019-06-01T11:42:42.800Z,5.12
2019-06-01T11:47:46.624Z,2.60
2019-06-01T11:52:50.380Z,3.16
2019-06-01T11:57:53.561Z,3.50
2019-06-01T12:02:57.195Z,3.40
2019-06-01T12:08:00.482Z,3.85
2019-06-01T12:13:03.576Z,2.40
2019-06-01T12:18:06.658Z,1.57
2019-06-01T12:23:09.810Z,3.90
2019-06-01T12:28:12.898Z,4.85
2019-06-01T12:33:15.719Z,2.20
2019-06-01T12:38:19.240Z,4.80
2019-06-01T12:43:22.468Z,4.67
2019-06-01T12:48:25.769Z,2.20
2019-06-01T12:53:28.923Z,3.37
2019-06-01T12:58:32.387Z,3.60
2019-06-01T13:03:35.380Z,6.63
2019-06-01T13:08:38.729Z,4.47
2019-06-01T13:13:43.123Z,2.62
2019-06-01T13:18:47.242Z,4.17
2019-06-01T13:23:51.602Z,4.12
2019-06-01T13:28:54.920Z,2.62
2019-06-01T13:33:58.050Z,2.80
2019-06-01T13:39:01.189Z,2.67
2019-06-01T13:44:04.897Z,2.15
2019-06-01T13:49:08.126Z,3.90
2019-06-01T13:54:11.259Z,3.25
2019-06-01T13:59:14.332Z,5.83
2019-06-01T14:04:17.626Z,3.05
2019-06-01T14:09:21.980Z,5.20
2019-06-01T14:14:25.616Z,2.77
2019-06-01T14:19:28.756Z,4.10
2019-06-01T14:24:31.880Z,2.90
2019-06-01T14:29:35.089Z,7.12
2019-06-01T14:34:38.339Z,5.92
2019-06-01T14:39:41.591Z,4.85
2019-06-01T14:44:44.766Z,6.15
2019-06-01T14:49:49.439Z,3.92
2019-06-01T14:54:53.764Z,5.77
2019-06-01T14:59:58.154Z,8.30
2019-06-01T15:05:01.732Z,4.97
2019-06-01T15:10:06.627Z,5.00
2019-06-01T15:15:10.440Z,13.60
2019-06-01T15:20:13.867Z,5.87
2019-06-01T15:25:18.757Z,6.53
2019-06-01T15:30:22.287Z,5.10
2019-06-01T15:35:25.303Z,7.55
2019-06-01T15:40:28.316Z,11.12
2019-06-01T15:45:31.290Z,7.53
2019-06-01T15:50:34.295Z,5.58
2019-06-01T15:55:37.508Z,5.87
2019-06-01T16:00:40.727Z,5.80
2019-06-01T16:05:43.981Z,6.67
2019-06-01T16:10:47.288Z,10.00
2019-06-01T16:15:50.710Z,8.27
2019-06-01T16:20:53.947Z,7.05
2019-06-01T16:26:07.616Z,7.90
2019-06-01T16:31:02.984Z,6.20
2019-06-01T16:36:06.218Z,6.72
2019-06-01T16:41:09.299Z,18.37
2019-06-01T16:46:12.369Z,11.03
2019-06-01T16:51:15.475Z,9.78
2019-06-01T16:56:18.544Z,8.50
2019-06-01T17:01:21.982Z,11.08
2019-06-01T17:06:25.187Z,12.25
2019-06-01T17:11:28.377Z,11.75
2019-06-01T17:16:31.627Z,8.25
2019-06-01T17:21:35.150Z,7.22
2019-06-01T17:26:38.370Z,10.90
2019-06-01T17:31:53.881Z,10.38
2019-06-01T17:36:46.481Z,9.38
2019-06-01T17:41:49.617Z,8.35
2019-06-01T17:46:54.155Z,12.33
2019-06-01T17:51:57.618Z,10.08
2019-06-01T17:57:01.046Z,10.98
2019-06-01T18:02:05.671Z,12.85
2019-06-01T18:07:09.979Z,8.68
2019-06-01T18:12:13.261Z,8.75
2019-06-01T18:17:16.399Z,6.45
2019-06-01T18:22:19.908Z,8.25
2019-06-01T18:27:23.061Z,9.05
2019-06-01T18:32:26.746Z,10.93
2019-06-01T18:37:29.796Z,9.33
2019-06-01T18:42:33.317Z,11.68
2019-06-01T18:47:37.217Z,11.35
2019-06-01T18:52:40.743Z,9.73
2019-06-01T18:57:50.163Z,12.15
2019-06-01T19:02:53.275Z,9.63
2019-06-01T19:07:56.494Z,8.40
2019-06-01T19:12:59.659Z,8.63
2019-06-01T19:18:02.726Z,10.53
2019-06-01T19:23:06.638Z,8.48
2019-06-01T19:28:11.030Z,9.53
2019-06-01T19:33:17.281Z,11.33
2019-06-01T19:38:20.506Z,7.53
2019-06-01T19:43:24.065Z,13.77
2019-06-01T19:48:27.150Z,10.58
2019-06-01T19:53:30.367Z,10.20
2019-06-01T19:58:33.581Z,11.17
2019-06-01T20:03:36.882Z,14.83
2019-06-01T20:08:39.999Z,12.98
2019-06-01T20:13:43.218Z,16.23
2019-06-01T20:18:46.328Z,18.10
2019-06-01T20:23:49.355Z,16.42
2019-06-01T20:28:52.358Z,13.88
2019-06-01T20:33:56.462Z,16.80
2019-06-01T20:39:04.012Z,14.78
2019-06-01T20:44:04.988Z,14.18
2019-06-01T20:49:08.279Z,15.70
2019-06-01T20:54:12.883Z,15.18
2019-06-01T20:59:18.527Z,11.05
2019-06-01T21:04:22.317Z,14.10
2019-06-01T21:09:25.766Z,13.80
2019-06-01T21:14:28.975Z,14.63
2019-06-01T21:19:32.066Z,13.15
2019-06-01T21:24:35.148Z,14.30
2019-06-01T21:29:38.332Z,11.45
2019-06-01T21:34:41.715Z,16.17
2019-06-01T21:39:44.984Z,16.02
2019-06-01T21:44:48.004Z,16.45
2019-06-01T21:49:51.182Z,16.82
2019-06-01T21:54:54.367Z,17.15
2019-06-01T21:59:57.496Z,21.23
2019-06-01T22:05:00.652Z,18.17
2019-06-01T22:10:05.095Z,22.80
2019-06-01T22:15:08.718Z,19.17
2019-06-01T22:20:11.937Z,19.27
2019-06-01T22:25:15.076Z,20.17
2019-06-01T22:30:22.266Z,20.05
2019-06-01T22:35:26.711Z,20.50
2019-06-01T22:40:31.409Z,25.30
2019-06-01T22:45:34.638Z,19.95
2019-06-01T22:50:37.949Z,23.32
2019-06-01T22:55:41.022Z,20.17
2019-06-01T23:00:44.019Z,19.02
2019-06-01T23:05:47.291Z,27.75
2019-06-01T23:10:50.427Z,21.40
2019-06-01T23:15:53.822Z,17.82
2019-06-01T23:20:56.938Z,19.23
2019-06-01T23:25:59.897Z,21.17
2019-06-01T23:31:02.890Z,19.65
2019-06-01T23:36:06.133Z,21.95
2019-06-01T23:41:09.256Z,18.87
2019-06-01T23:46:12.498Z,23.55
2019-06-01T23:51:15.534Z,17.73
2019-06-01T23:56:18.548Z,20.02
